SBSM

Santa Maria Airport

Santa Maria, Brazil
TAF SBSM 220830Z 2212/2224 09005KT 9999 FEW025 TN24/2212Z TX31/2218Z RMK PEL
Issued Valid From Valid To
Jan-22 @ 08:30 UTC
(9 hours ago)
Jan-22 @ 12:00 UTC
(6 hours ago)
Jan-23 @ 00:00 UTC
(in 6 hours)
Jan-22 @ 12:00 to Jan-23 @ 00:00
TAF SBSM 220830Z 2212/2224 09005KT 9999 FEW025 TN24/2212Z TX31/2218Z RMK PEL
Wind Visibility Clouds
90° at 5 knots 10,000+ meters
  • Few at 2,500' AGL
TAF SBSM 220830Z 2212/2224 09005KT 9999 FEW025 TN24/2212Z TX31/2218Z RMK PEL
Issued Jan-22 @ 08:30 UTC
(9 hours ago)
Valid From Jan-22 @ 12:00 UTC
(6 hours ago)
Valid To Jan-23 @ 00:00 UTC
(in 6 hours)
Jan-22 @ 12:00 - Jan-23 @ 00:00
Wind Visibility
90° at 5 knots 10,000+ meters
Clouds
  • Few at 2,500' AGL